Time;durP1;ratioP1;P1;durP2;ratioP2;P2;SDS_P1;SDS_P2;PMS_P1;PMS_P2;Temp;Humidity;BMP_temperature;BMP_pressure;BME280_temperature;BME280_humidity;BME280_pressure;Samples;Min_cycle;Max_cycle;Signal;HPM_P1;HPM_P2
2022/04/08 00:01:48;;;;;;;6.80;4.50;;;;;;;;;;5075644;28;20212;-88
2022/04/08 00:04:17;;;;;;;9.43;3.60;;;;;;;;;;5093459;28;20193;-87
2022/04/08 00:06:47;;;;;;;8.37;4.57;;;;;;;;;;5092970;28;20220;-87
2022/04/08 00:09:16;;;;;;;5.37;2.50;;;;;;;;;;5075484;28;20212;-87
2022/04/08 00:11:44;;;;;;;2.57;1.60;;;;;;;;;;5075425;28;20208;-88
2022/04/08 00:14:13;;;;;;;9.23;2.93;;;;;;;;;;5075518;28;20201;-87
2022/04/08 00:16:41;;;;;;;2.67;1.90;;;;;;;;;;5075366;28;20200;-88
2022/04/08 00:19:09;;;;;;;4.63;2.50;;;;;;;;;;5075133;28;20201;-88
2022/04/08 00:21:38;;;;;;;5.37;2.60;;;;;;;;;;5075390;28;20201;-88
2022/04/08 00:24:08;;;;;;;8.93;2.47;;;;;;;;;;5075361;28;20204;-88
2022/04/08 00:26:42;;;;;;;18.27;2.43;;;;;;;;;;5075023;28;20212;-88
2022/04/08 00:29:10;;;;;;;5.23;2.50;;;;;;;;;;5091744;28;20225;-88
2022/04/08 00:31:38;;;;;;;7.33;1.80;;;;;;;;;;5075213;28;20205;-88
2022/04/08 00:34:07;;;;;;;11.07;3.60;;;;;;;;;;5075107;28;20475;-88
2022/04/08 00:36:36;;;;;;;9.90;3.47;;;;;;;;;;5091957;28;20205;-88
2022/04/08 00:39:05;;;;;;;10.90;2.83;;;;;;;;;;5074810;28;20257;-88
2022/04/08 00:41:35;;;;;;;6.53;1.50;;;;;;;;;;5092325;28;20237;-88
2022/04/08 00:44:04;;;;;;;9.87;3.10;;;;;;;;;;5074676;28;20304;-88
2022/04/08 00:46:33;;;;;;;1.50;1.40;;;;;;;;;;5091964;28;20205;-88
2022/04/08 00:49:01;;;;;;;7.13;2.57;;;;;;;;;;5092602;28;20217;-86
2022/04/08 00:51:30;;;;;;;5.77;2.53;;;;;;;;;;5074912;28;20201;-86
2022/04/08 00:53:58;;;;;;;7.53;2.60;;;;;;;;;;5094201;28;20220;-86
2022/04/08 00:56:29;;;;;;;17.13;2.93;;;;;;;;;;5078546;28;20204;-87
2022/04/08 00:58:59;;;;;;;10.37;3.13;;;;;;;;;;5078936;28;20197;-87
2022/04/08 01:01:28;;;;;;;10.90;4.43;;;;;;;;;;5095813;28;20212;-87
2022/04/08 01:03:57;;;;;;;7.47;3.40;;;;;;;;;;5095463;28;20204;-87
2022/04/08 01:06:26;;;;;;;7.53;1.77;;;;;;;;;;5095162;28;20258;-87
2022/04/08 01:08:55;;;;;;;5.07;2.07;;;;;;;;;;5095252;28;20252;-87
2022/04/08 01:11:23;;;;;;;7.23;2.50;;;;;;;;;;5079020;28;20200;-87
2022/04/08 01:13:52;;;;;;;3.43;3.20;;;;;;;;;;5078607;28;20219;-88
2022/04/08 01:16:22;;;;;;;5.97;2.90;;;;;;;;;;5078426;28;20233;-87
2022/04/08 01:18:51;;;;;;;18.53;4.60;;;;;;;;;;5078081;28;20208;-87
2022/04/08 01:21:19;;;;;;;13.97;2.53;;;;;;;;;;5096534;28;20211;-87
2022/04/08 01:23:49;;;;;;;7.93;2.90;;;;;;;;;;5078225;28;20201;-88
2022/04/08 01:26:19;;;;;;;8.43;3.03;;;;;;;;;;5078301;28;20201;-88
2022/04/08 01:28:48;;;;;;;3.80;3.20;;;;;;;;;;5077489;28;20221;-88
2022/04/08 01:31:16;;;;;;;5.37;1.70;;;;;;;;;;5078049;28;20214;-88
2022/04/08 01:33:45;;;;;;;6.43;2.00;;;;;;;;;;5077831;28;20257;-88
2022/04/08 01:36:14;;;;;;;6.10;1.70;;;;;;;;;;5077906;28;20208;-88
2022/04/08 01:38:42;;;;;;;4.50;2.37;;;;;;;;;;5078021;28;20198;-88
2022/04/08 01:41:10;;;;;;;5.37;1.90;;;;;;;;;;5077639;28;20363;-88
2022/04/08 01:43:40;;;;;;;6.70;2.33;;;;;;;;;;5077647;28;20289;-88
2022/04/08 01:46:08;;;;;;;4.67;1.60;;;;;;;;;;5077655;28;20209;-89
2022/04/08 01:48:37;;;;;;;2.03;1.60;;;;;;;;;;5095551;28;20215;-87
2022/04/08 01:51:05;;;;;;;4.33;1.73;;;;;;;;;;5077181;28;20249;-88
2022/04/08 01:53:34;;;;;;;7.17;3.23;;;;;;;;;;5095528;28;20204;-87
2022/04/08 01:56:02;;;;;;;5.73;2.90;;;;;;;;;;5077868;28;20201;-88
2022/04/08 01:58:30;;;;;;;3.77;2.30;;;;;;;;;;5077682;28;20193;-87
2022/04/08 02:01:01;;;;;;;4.77;1.93;;;;;;;;;;5077333;28;20232;-88
2022/04/08 02:03:30;;;;;;;3.77;2.50;;;;;;;;;;5095445;28;20203;-88
2022/04/08 02:05:58;;;;;;;4.57;3.67;;;;;;;;;;5076517;28;20221;-88
2022/04/08 02:08:27;;;;;;;4.60;2.23;;;;;;;;;;5077684;28;20213;-88
2022/04/08 02:10:55;;;;;;;15.50;3.20;;;;;;;;;;5077221;28;20232;-87
2022/04/08 02:13:24;;;;;;;5.90;2.07;;;;;;;;;;5095377;28;20200;-88
2022/04/08 02:15:52;;;;;;;2.77;1.10;;;;;;;;;;5076998;28;20254;-88
2022/04/08 02:18:22;;;;;;;3.20;2.17;;;;;;;;;;5077247;28;20202;-88
2022/04/08 02:20:51;;;;;;;5.70;2.23;;;;;;;;;;5094943;28;20193;-88
2022/04/08 02:23:19;;;;;;;3.63;1.37;;;;;;;;;;5076791;28;20211;-87
2022/04/08 02:25:48;;;;;;;2.93;1.10;;;;;;;;;;5076357;28;20198;-88
2022/04/08 02:28:16;;;;;;;5.10;1.83;;;;;;;;;;5108925;28;20202;-88
2022/04/08 02:30:44;;;;;;;1.80;1.47;;;;;;;;;;5076456;28;20212;-87
2022/04/08 02:33:13;;;;;;;3.87;1.90;;;;;;;;;;5076999;28;20201;-88
2022/04/08 02:35:43;;;;;;;1.30;1.30;;;;;;;;;;5112869;28;20196;-90
2022/04/08 02:38:11;;;;;;;1.47;1.37;;;;;;;;;;5094798;28;20254;-85
2022/04/08 02:40:39;;;;;;;0.90;0.90;;;;;;;;;;5094223;28;20197;-85
2022/04/08 02:43:08;;;;;;;2.73;1.60;;;;;;;;;;5076365;28;20236;-86
2022/04/08 02:45:37;;;;;;;2.40;1.13;;;;;;;;;;5093883;28;20200;-85
2022/04/08 02:48:05;;;;;;;1.23;1.23;;;;;;;;;;5076550;28;20200;-85
2022/04/08 02:50:34;;;;;;;1.50;1.17;;;;;;;;;;5076039;28;20221;-86
2022/04/08 02:53:04;;;;;;;3.03;1.80;;;;;;;;;;5094574;28;20200;-86
2022/04/08 02:55:32;;;;;;;0.90;0.90;;;;;;;;;;5094275;28;20200;-85
2022/04/08 02:58:00;;;;;;;3.37;3.27;;;;;;;;;;5073909;28;20289;-85
2022/04/08 03:00:29;;;;;;;2.07;1.23;;;;;;;;;;5073945;28;20186;-84
2022/04/08 03:02:57;;;;;;;4.03;3.77;;;;;;;;;;5072557;28;20251;-83
2022/04/08 03:05:26;;;;;;;2.20;1.47;;;;;;;;;;5072609;28;20221;-83
2022/04/08 03:07:54;;;;;;;1.53;1.20;;;;;;;;;;5073710;28;20197;-84
2022/04/08 03:10:24;;;;;;;6.93;3.50;;;;;;;;;;5072235;28;20304;-84
2022/04/08 03:12:52;;;;;;;5.20;2.83;;;;;;;;;;5072554;28;20220;-84
2022/04/08 03:15:21;;;;;;;7.43;2.23;;;;;;;;;;5072377;28;20208;-85
2022/04/08 03:17:51;;;;;;;7.93;3.17;;;;;;;;;;5071655;28;20193;-86
2022/04/08 03:20:19;;;;;;;7.50;2.40;;;;;;;;;;5072347;28;20201;-85
2022/04/08 03:22:48;;;;;;;9.57;3.33;;;;;;;;;;5072162;28;20194;-85
2022/04/08 03:25:16;;;;;;;7.40;2.37;;;;;;;;;;5073371;28;20201;-85
2022/04/08 03:27:46;;;;;;;7.97;2.53;;;;;;;;;;5072322;28;20194;-86
2022/04/08 03:30:14;;;;;;;5.77;2.23;;;;;;;;;;5071887;28;20217;-85
2022/04/08 03:32:43;;;;;;;2.60;2.07;;;;;;;;;;5075344;28;20197;-86
2022/04/08 03:35:11;;;;;;;6.03;2.20;;;;;;;;;;5093260;28;20208;-86
2022/04/08 03:37:40;;;;;;;11.87;2.40;;;;;;;;;;5075469;28;20201;-85
2022/04/08 03:40:09;;;;;;;6.77;2.77;;;;;;;;;;5093467;28;20204;-86
2022/04/08 03:42:38;;;;;;;4.27;1.83;;;;;;;;;;5072031;28;20233;-85
2022/04/08 03:45:08;;;;;;;13.43;3.17;;;;;;;;;;5071875;28;20201;-86
2022/04/08 03:47:36;;;;;;;10.80;4.07;;;;;;;;;;5071999;28;20224;-86
2022/04/08 03:50:05;;;;;;;5.07;2.47;;;;;;;;;;5072964;28;20209;-86
2022/04/08 03:52:33;;;;;;;11.77;3.17;;;;;;;;;;5072138;28;20197;-86
2022/04/08 03:55:02;;;;;;;8.43;2.77;;;;;;;;;;5072529;28;20208;-86
2022/04/08 03:57:31;;;;;;;9.60;2.70;;;;;;;;;;5072974;28;20206;-86
2022/04/08 03:59:59;;;;;;;6.10;2.40;;;;;;;;;;5072134;28;20185;-86
2022/04/08 04:02:29;;;;;;;13.77;4.13;;;;;;;;;;5071931;28;20194;-86
2022/04/08 04:04:59;;;;;;;3.50;1.77;;;;;;;;;;5072028;28;20265;-86
2022/04/08 04:07:28;;;;;;;8.93;3.70;;;;;;;;;;5072925;28;20269;-86
2022/04/08 04:09:58;;;;;;;17.13;3.40;;;;;;;;;;5072633;28;20206;-86
2022/04/08 04:12:27;;;;;;;2.43;1.87;;;;;;;;;;5071906;28;20209;-86
2022/04/08 04:14:56;;;;;;;12.67;2.80;;;;;;;;;;5072096;28;20227;-86
2022/04/08 04:17:28;;;;;;;8.33;3.50;;;;;;;;;;5072113;28;20264;-86
2022/04/08 04:19:57;;;;;;;8.33;2.30;;;;;;;;;;5071816;28;20220;-86
2022/04/08 04:22:26;;;;;;;6.00;2.50;;;;;;;;;;5071638;28;20197;-86
2022/04/08 04:24:54;;;;;;;5.07;2.70;;;;;;;;;;5071919;28;20197;-86
2022/04/08 04:27:23;;;;;;;7.37;1.97;;;;;;;;;;5071455;28;20301;-86
2022/04/08 04:29:51;;;;;;;5.93;3.00;;;;;;;;;;5075682;28;20212;-86
2022/04/08 04:32:19;;;;;;;7.90;3.90;;;;;;;;;;5069900;28;20194;-86
2022/04/08 04:34:48;;;;;;;14.17;3.90;;;;;;;;;;5055596;28;20214;-86
2022/04/08 04:37:19;;;;;;;1.50;1.20;;;;;;;;;;5055545;28;20194;-86
2022/04/08 04:39:47;;;;;;;4.50;2.53;;;;;;;;;;5056047;28;20206;-86
2022/04/08 04:42:15;;;;;;;4.70;1.37;;;;;;;;;;5061785;28;20234;-86
2022/04/08 04:44:44;;;;;;;8.97;2.70;;;;;;;;;;5092837;28;20288;-86
2022/04/08 04:47:12;;;;;;;10.93;2.50;;;;;;;;;;5075882;28;20190;-86
2022/04/08 04:49:41;;;;;;;9.63;2.60;;;;;;;;;;5094091;28;20210;-86
2022/04/08 04:52:09;;;;;;;5.63;2.37;;;;;;;;;;5076706;28;20240;-87
2022/04/08 04:54:40;;;;;;;10.07;3.70;;;;;;;;;;5092475;28;20295;-86
2022/04/08 04:57:09;;;;;;;6.70;3.47;;;;;;;;;;5092460;28;20288;-86
2022/04/08 04:59:37;;;;;;;7.27;2.80;;;;;;;;;;5075239;28;20197;-86
2022/04/08 05:02:06;;;;;;;1.47;1.37;;;;;;;;;;5076264;28;20194;-87
2022/04/08 05:04:34;;;;;;;8.20;2.60;;;;;;;;;;5075565;28;20229;-87
2022/04/08 05:07:03;;;;;;;10.50;5.87;;;;;;;;;;5075057;28;20214;-87
2022/04/08 05:09:32;;;;;;;6.87;3.43;;;;;;;;;;5075433;28;20288;-87
2022/04/08 05:12:01;;;;;;;5.20;2.70;;;;;;;;;;5074801;28;20220;-87
2022/04/08 05:14:30;;;;;;;5.33;2.20;;;;;;;;;;5076410;28;20189;-87
2022/04/08 05:16:59;;;;;;;10.90;2.87;;;;;;;;;;5091653;28;20198;-87
2022/04/08 05:19:27;;;;;;;8.70;3.20;;;;;;;;;;5091804;28;20197;-87
2022/04/08 05:21:56;;;;;;;10.30;3.20;;;;;;;;;;5074618;28;20263;-87
2022/04/08 05:24:27;;;;;;;14.73;3.70;;;;;;;;;;5074985;28;20232;-87
2022/04/08 05:26:56;;;;;;;7.57;2.60;;;;;;;;;;5074964;28;20263;-87
2022/04/08 05:29:25;;;;;;;7.90;2.50;;;;;;;;;;5091564;28;20304;-87
2022/04/08 05:31:54;;;;;;;11.00;3.10;;;;;;;;;;5091715;28;20238;-88
2022/04/08 05:34:22;;;;;;;2.43;1.33;;;;;;;;;;5074608;28;20209;-88
2022/04/08 05:36:51;;;;;;;2.47;1.90;;;;;;;;;;5074415;28;20201;-88
2022/04/08 05:39:19;;;;;;;8.30;2.47;;;;;;;;;;5074497;28;20198;-88
2022/04/08 05:41:48;;;;;;;6.70;3.07;;;;;;;;;;5074261;28;20312;-88
2022/04/08 05:44:17;;;;;;;5.73;2.50;;;;;;;;;;5078196;28;20237;-88
2022/04/08 05:46:48;;;;;;;2.90;1.83;;;;;;;;;;5096056;28;20209;-86
2022/04/08 05:49:30;;;;;;;3.60;2.23;;;;;;;;;;5077988;28;20205;-86
2022/04/08 05:51:59;;;;;;;18.80;3.23;;;;;;;;;;5077770;28;20220;-87
2022/04/08 05:54:27;;;;;;;8.03;3.97;;;;;;;;;;5077968;28;20204;-88
2022/04/08 05:57:01;;;;;;;7.87;2.60;;;;;;;;;;5077682;28;20258;-88
2022/04/08 05:59:29;;;;;;;5.10;2.67;;;;;;;;;;5077525;28;20211;-88
2022/04/08 06:01:59;;;;;;;7.83;2.87;;;;;;;;;;5077243;28;20197;-88
2022/04/08 06:04:27;;;;;;;8.10;2.50;;;;;;;;;;5077509;28;20193;-89
2022/04/08 06:06:56;;;;;;;10.93;3.33;;;;;;;;;;5077410;28;20217;-90
2022/04/08 06:09:24;;;;;;;9.57;1.93;;;;;;;;;;5077663;28;20205;-90
2022/04/08 06:11:53;;;;;;;6.63;2.17;;;;;;;;;;5077718;28;20304;-90
2022/04/08 06:14:21;;;;;;;7.40;2.17;;;;;;;;;;5077745;28;20196;-91
2022/04/08 06:16:50;;;;;;;6.30;1.97;;;;;;;;;;5077777;28;20197;-90
2022/04/08 06:19:20;;;;;;;1.90;1.53;;;;;;;;;;5077790;28;20204;-91
2022/04/08 06:21:48;;;;;;;2.80;1.80;;;;;;;;;;5077838;28;20192;-90
2022/04/08 06:24:17;;;;;;;4.73;2.00;;;;;;;;;;5077696;28;20210;-91
2022/04/08 06:26:46;;;;;;;3.83;1.30;;;;;;;;;;5077944;28;20199;-87
2022/04/08 06:29:14;;;;;;;19.50;2.37;;;;;;;;;;5077415;28;20228;-91
2022/04/08 06:31:46;;;;;;;5.57;2.37;;;;;;;;;;5077396;28;20247;-91
2022/04/08 06:34:47;;;;;;;6.03;1.80;;;;;;;;;;5077149;28;20205;-91
2022/04/08 06:37:21;;;;;;;1.20;1.13;;;;;;;;;;5033053;28;20203;-90
2022/04/08 06:39:49;;;;;;;11.53;3.80;;;;;;;;;;5096997;28;20215;-91
2022/04/08 06:42:18;;;;;;;5.57;1.80;;;;;;;;;;5110983;28;20244;-91
2022/04/08 06:44:47;;;;;;;2.23;1.63;;;;;;;;;;5095780;28;20193;-90
2022/04/08 06:47:15;;;;;;;4.50;3.33;;;;;;;;;;5076827;28;20206;-91
2022/04/08 06:49:46;;;;;;;5.07;1.67;;;;;;;;;;5094695;28;20237;-91
2022/04/08 06:52:15;;;;;;;10.10;3.03;;;;;;;;;;5111194;28;20258;-91
2022/04/08 07:05:43;;;;;;;19.57;2.90;;;;;;;;;;5048589;28;20223;-88
2022/04/08 07:08:40;;;;;;;;;;;;;;;;;;;;;
2022/04/08 07:11:28;;;;;;;5.23;2.00;;;;;;;;;;5081398;28;20203;-88
2022/04/08 07:14:15;;;;;;;1.10;1.10;;;;;;;;;;5067303;28;20193;-88
2022/04/08 07:17:05;;;;;;;2.97;1.67;;;;;;;;;;5073653;28;20194;-89
2022/04/08 07:23:27;;;;;;;1.67;1.20;;;;;;;;;;5071928;28;20217;-91
2022/04/08 07:30:55;;;;;;;;;;;;;;;;;;;;;
2022/04/08 07:37:39;;;;;;;2.20;1.37;;;;;;;;;;5002926;28;20279;-89
2022/04/08 07:44:28;;;;;;;1.83;1.73;;;;;;;;;;4999217;28;20232;-91
2022/04/08 07:47:20;;;;;;;3.03;2.50;;;;;;;;;;5012852;28;20198;-89
2022/04/08 07:50:09;;;;;;;5.30;1.83;;;;;;;;;;5011537;28;20200;-90
2022/04/08 07:53:00;;;;;;;2.43;1.50;;;;;;;;;;5024726;28;20219;-91
2022/04/08 07:55:55;;;;;;;5.27;1.93;;;;;;;;;;5015237;28;20476;-89
2022/04/08 07:59:29;;;;;;;2.77;2.30;;;;;;;;;;5003251;28;20226;-89
2022/04/08 08:02:32;;;;;;;2.23;1.13;;;;;;;;;;5020718;28;20191;-88
2022/04/08 08:05:58;;;;;;;5.50;2.77;;;;;;;;;;5082417;28;20214;-89
2022/04/08 08:08:44;;;;;;;5.50;2.83;;;;;;;;;;5054698;28;20208;-91
2022/04/08 08:17:49;;;;;;;1.63;1.53;;;;;;;;;;5070215;28;20205;-90
2022/04/08 08:20:52;;;;;;;5.00;1.90;;;;;;;;;;5072816;28;20231;-88
2022/04/08 08:24:01;;;;;;;4.77;2.10;;;;;;;;;;5065169;28;20202;-89
2022/04/08 08:26:43;;;;;;;1.93;1.47;;;;;;;;;;5074710;28;20301;-91
2022/04/08 08:29:22;;;;;;;4.57;2.00;;;;;;;;;;5071955;28;20202;-90
2022/04/08 08:32:18;;;;;;;1.63;1.50;;;;;;;;;;5073829;28;20218;-89
2022/04/08 08:35:20;;;;;;;3.90;1.20;;;;;;;;;;5070504;28;20209;-89
2022/04/08 08:38:15;;;;;;;5.50;1.67;;;;;;;;;;5068455;28;20200;-89
2022/04/08 08:41:18;;;;;;;2.10;1.23;;;;;;;;;;5065001;28;20202;-88
2022/04/08 08:44:10;;;;;;;5.63;2.33;;;;;;;;;;5067083;28;20245;-89
2022/04/08 08:46:45;;;;;;;2.03;1.10;;;;;;;;;;5056696;28;20215;-87
2022/04/08 08:49:40;;;;;;;2.53;1.90;;;;;;;;;;5069649;28;20207;-89
2022/04/08 08:52:39;;;;;;;4.50;2.20;;;;;;;;;;5082521;28;20209;-87
2022/04/08 08:55:16;;;;;;;3.63;1.93;;;;;;;;;;5071534;28;20280;-89
2022/04/08 08:58:07;;;;;;;1.37;1.30;;;;;;;;;;5065788;28;20211;-90
2022/04/08 09:00:43;;;;;;;2.00;1.80;;;;;;;;;;5065842;28;20206;-89
2022/04/08 09:03:51;;;;;;;3.57;1.77;;;;;;;;;;5068708;28;20209;-90
2022/04/08 09:07:11;;;;;;;3.03;1.63;;;;;;;;;;5012180;28;20307;-91
2022/04/08 09:10:08;;;;;;;2.70;1.50;;;;;;;;;;5073910;28;20196;-90
2022/04/08 09:12:41;;;;;;;4.20;2.20;;;;;;;;;;5069953;28;20255;-86
2022/04/08 09:15:23;;;;;;;4.27;1.40;;;;;;;;;;5069355;28;20207;-90
2022/04/08 09:18:10;;;;;;;8.40;4.90;;;;;;;;;;5072190;28;20271;-89
2022/04/08 09:20:53;;;;;;;1.63;1.60;;;;;;;;;;5083071;28;20211;-90
2022/04/08 09:23:56;;;;;;;3.10;1.40;;;;;;;;;;5077543;28;20197;-88
2022/04/08 09:26:50;;;;;;;4.27;1.53;;;;;;;;;;5064276;28;20205;-88
2022/04/08 09:29:57;;;;;;;1.20;1.20;;;;;;;;;;5075842;28;20241;-90
2022/04/08 09:32:39;;;;;;;7.07;1.93;;;;;;;;;;5072110;28;20199;-90
2022/04/08 09:35:19;;;;;;;4.67;1.33;;;;;;;;;;5074942;28;20193;-91
2022/04/08 09:37:58;;;;;;;2.23;1.63;;;;;;;;;;5077670;28;20338;-87
2022/04/08 09:40:31;;;;;;;5.93;1.60;;;;;;;;;;5076068;28;20245;-90
2022/04/08 09:43:16;;;;;;;1.50;1.23;;;;;;;;;;5073419;28;20271;-90
2022/04/08 09:46:14;;;;;;;1.53;1.40;;;;;;;;;;5077868;28;20247;-92
2022/04/08 09:48:52;;;;;;;8.77;1.50;;;;;;;;;;5071087;28;20209;-90
2022/04/08 09:51:54;;;;;;;10.73;2.20;;;;;;;;;;5074334;28;20205;-90
2022/04/08 09:54:29;;;;;;;3.70;1.67;;;;;;;;;;5063599;28;20216;-89
2022/04/08 09:57:37;;;;;;;2.47;1.50;;;;;;;;;;5077165;28;20217;-92
2022/04/08 10:00:23;;;;;;;3.87;1.60;;;;;;;;;;5070981;28;20205;-89
2022/04/08 10:02:58;;;;;;;1.93;1.20;;;;;;;;;;5078376;28;20200;-90
2022/04/08 10:05:43;;;;;;;9.00;2.20;;;;;;;;;;5073413;28;20294;-89
2022/04/08 10:08:23;;;;;;;3.03;1.70;;;;;;;;;;5073446;28;20220;-90
2022/04/08 10:11:19;;;;;;;2.17;1.43;;;;;;;;;;5072284;28;20246;-92
2022/04/08 10:14:26;;;;;;;4.07;2.23;;;;;;;;;;5064626;28;20212;-91
2022/04/08 10:17:16;;;;;;;1.23;1.23;;;;;;;;;;5084686;28;20255;-91
2022/04/08 10:24:06;;;;;;;4.73;2.17;;;;;;;;;;4979931;28;20219;-91
2022/04/08 10:27:38;;;;;;;3.00;2.00;;;;;;;;;;5025142;28;20208;-91
2022/04/08 10:37:30;;;;;;;2.17;1.77;;;;;;;;;;5070952;28;20208;-90
2022/04/08 10:40:46;;;;;;;2.90;1.80;;;;;;;;;;5069646;28;20198;-92
2022/04/08 10:43:48;;;;;;;1.43;1.30;;;;;;;;;;5059285;28;20319;-90
2022/04/08 10:46:32;;;;;;;2.90;2.40;;;;;;;;;;5059929;28;20221;-90
2022/04/08 10:49:20;;;;;;;5.80;1.67;;;;;;;;;;5053060;28;20212;-90
2022/04/08 10:51:59;;;;;;;2.50;1.07;;;;;;;;;;5049464;28;20202;-88
2022/04/08 10:54:38;;;;;;;15.57;1.77;;;;;;;;;;5053012;28;20228;-92
2022/04/08 10:57:18;;;;;;;3.73;1.60;;;;;;;;;;5050788;28;20201;-94
2022/04/08 11:00:06;;;;;;;5.37;1.60;;;;;;;;;;5053690;28;20241;-92
2022/04/08 11:02:39;;;;;;;3.47;1.58;;;;;;;;;;5046711;28;20446;-91
2022/04/08 11:05:31;;;;;;;1.90;1.03;;;;;;;;;;5051634;28;20223;-90
2022/04/08 11:08:00;;;;;;;1.57;1.47;;;;;;;;;;5051014;28;20217;-91
2022/04/08 11:10:31;;;;;;;4.93;1.07;;;;;;;;;;5045722;28;20209;-91
2022/04/08 11:13:16;;;;;;;5.30;1.17;;;;;;;;;;5053052;28;20260;-91
2022/04/08 11:36:07;;;;;;;;;;;;;;;;;;;;;
2022/04/08 11:44:19;;;;;;;;;;;;;;;;;;;;;
2022/04/08 11:48:04;;;;;;;1.07;0.93;;;;;;;;;;4874369;29;20204;-91
2022/04/08 11:51:00;;;;;;;2.90;1.63;;;;;;;;;;4878322;29;20216;-90
2022/04/08 11:54:05;;;;;;;0.90;0.90;;;;;;;;;;4935353;29;20222;-89
2022/04/08 12:04:08;;;;;;;1.43;1.10;;;;;;;;;;4977099;28;20209;-89
2022/04/08 12:14:57;;;;;;;7.47;2.83;;;;;;;;;;4999506;28;20314;-91
2022/04/08 12:18:20;;;;;;;0.83;0.83;;;;;;;;;;5045233;28;20198;-91
2022/04/08 12:21:00;;;;;;;2.27;1.10;;;;;;;;;;5051544;28;20202;-94
2022/04/08 13:19:25;;;;;;;6.13;1.33;;;;;;;;;;4991508;28;20225;-92
2022/04/08 13:22:16;;;;;;;0.97;0.97;;;;;;;;;;4980450;28;20226;-89
2022/04/08 13:24:46;;;;;;;1.47;1.43;;;;;;;;;;4986344;28;20196;-89
2022/04/08 13:27:15;;;;;;;1.23;1.20;;;;;;;;;;4978220;28;20196;-88
2022/04/08 13:29:55;;;;;;;7.03;1.30;;;;;;;;;;4970215;28;20228;-90
2022/04/08 13:32:38;;;;;;;5.40;1.57;;;;;;;;;;4986889;28;20216;-89
2022/04/08 13:35:14;;;;;;;2.17;1.27;;;;;;;;;;4979209;28;20216;-87
2022/04/08 13:37:48;;;;;;;0.97;0.87;;;;;;;;;;4970862;28;20213;-91
2022/04/08 13:40:28;;;;;;;12.33;1.50;;;;;;;;;;4966439;28;20197;-92
2022/04/08 13:43:07;;;;;;;6.70;1.17;;;;;;;;;;4979317;28;20192;-91
2022/04/08 13:45:37;;;;;;;2.50;1.60;;;;;;;;;;4978337;28;20219;-90
2022/04/08 13:48:06;;;;;;;1.63;1.37;;;;;;;;;;4977097;28;20276;-88
2022/04/08 13:50:36;;;;;;;1.07;1.07;;;;;;;;;;4974762;28;20202;-89
2022/04/08 13:55:58;;;;;;;1.33;1.23;;;;;;;;;;4975977;28;20216;-92
2022/04/08 13:58:59;;;;;;;0.90;0.90;;;;;;;;;;4973368;28;20280;-89
2022/04/08 14:02:06;;;;;;;;;;;;;;;;;;;;;
2022/04/08 14:05:01;;;;;;;1.60;1.33;;;;;;;;;;4963067;28;20225;-93
2022/04/08 14:07:39;;;;;;;1.73;1.20;;;;;;;;;;4956950;28;20215;-90
2022/04/08 14:13:03;;;;;;;1.57;1.47;;;;;;;;;;4953560;28;20204;-92
2022/04/08 14:15:42;;;;;;;1.50;1.40;;;;;;;;;;4956380;28;20314;-91
2022/04/08 14:18:15;;;;;;;3.67;1.53;;;;;;;;;;4969302;28;20237;-92
2022/04/08 14:20:45;;;;;;;3.20;1.60;;;;;;;;;;4970550;28;20212;-91
2022/04/08 14:23:19;;;;;;;3.13;1.40;;;;;;;;;;4959386;29;20201;-91
2022/04/08 14:25:51;;;;;;;6.90;1.37;;;;;;;;;;4956815;29;20201;-89
2022/04/08 14:28:33;;;;;;;0.87;0.73;;;;;;;;;;4958895;28;20223;-91
2022/04/08 14:31:06;;;;;;;1.33;1.33;;;;;;;;;;4971441;28;20205;-89
2022/04/08 14:33:49;;;;;;;0.90;0.90;;;;;;;;;;4970786;28;20496;-92
2022/04/08 14:36:32;;;;;;;1.10;1.10;;;;;;;;;;4961402;28;20213;-90
2022/04/08 14:39:35;;;;;;;1.10;1.10;;;;;;;;;;4961773;28;20249;-89
2022/04/08 14:42:37;;;;;;;4.50;1.43;;;;;;;;;;4981796;28;20200;-89
2022/04/08 14:48:50;;;;;;;2.97;1.30;;;;;;;;;;4955331;28;20212;-93
2022/04/08 14:52:06;;;;;;;0.97;0.90;;;;;;;;;;4946305;28;20292;-92
2022/04/08 14:54:50;;;;;;;1.53;1.10;;;;;;;;;;4951737;29;20202;-91
2022/04/08 14:57:29;;;;;;;1.13;1.13;;;;;;;;;;4954681;28;20238;-91
2022/04/08 15:00:09;;;;;;;2.37;1.13;;;;;;;;;;4942948;28;20209;-92
2022/04/08 15:02:57;;;;;;;2.20;1.20;;;;;;;;;;4972326;28;20208;-90
2022/04/08 15:05:28;;;;;;;1.07;1.00;;;;;;;;;;4956902;28;20221;-90
2022/04/08 15:07:59;;;;;;;12.10;1.77;;;;;;;;;;4954517;28;20286;-91
2022/04/08 15:10:29;;;;;;;1.90;1.40;;;;;;;;;;4941918;29;20209;-91
2022/04/08 15:13:00;;;;;;;2.20;1.13;;;;;;;;;;4944942;28;20205;-93
2022/04/08 15:15:38;;;;;;;1.27;1.20;;;;;;;;;;4950398;28;20225;-90
2022/04/08 15:18:17;;;;;;;1.60;1.10;;;;;;;;;;4944616;28;20233;-90
2022/04/08 15:20:55;;;;;;;1.30;1.20;;;;;;;;;;4946980;29;20202;-91
2022/04/08 15:23:25;;;;;;;1.13;1.13;;;;;;;;;;4949214;28;20215;-90
2022/04/08 15:25:58;;;;;;;0.90;0.87;;;;;;;;;;4952020;29;20205;-90
2022/04/08 15:28:28;;;;;;;2.40;1.30;;;;;;;;;;4950496;28;20258;-91
2022/04/08 15:30:57;;;;;;;2.77;1.80;;;;;;;;;;4947249;28;20209;-90
2022/04/08 15:33:34;;;;;;;1.93;1.10;;;;;;;;;;4965399;28;20205;-89
2022/04/08 15:36:03;;;;;;;3.10;1.50;;;;;;;;;;4958215;28;20470;-89
2022/04/08 15:38:32;;;;;;;0.80;0.80;;;;;;;;;;4949798;29;20269;-88
2022/04/08 15:41:02;;;;;;;13.73;2.00;;;;;;;;;;4972257;28;20204;-88
2022/04/08 15:43:31;;;;;;;1.50;1.40;;;;;;;;;;4958578;28;20271;-88
2022/04/08 15:46:03;;;;;;;3.90;2.07;;;;;;;;;;4957842;28;20207;-88
2022/04/08 15:48:32;;;;;;;2.70;1.43;;;;;;;;;;4974951;28;20236;-88
2022/04/08 15:51:00;;;;;;;2.50;1.40;;;;;;;;;;4959063;28;20208;-88
2022/04/08 15:53:29;;;;;;;5.80;1.50;;;;;;;;;;4960986;28;20199;-88
2022/04/08 15:55:57;;;;;;;3.80;1.57;;;;;;;;;;4959611;28;20220;-88
2022/04/08 15:58:27;;;;;;;3.30;1.00;;;;;;;;;;4959791;28;20209;-88
2022/04/08 16:00:57;;;;;;;4.53;1.80;;;;;;;;;;4975598;28;20204;-88
2022/04/08 16:03:25;;;;;;;4.53;1.60;;;;;;;;;;4977464;28;20212;-89
2022/04/08 16:05:55;;;;;;;1.53;1.30;;;;;;;;;;4975539;28;20238;-88
2022/04/08 16:08:23;;;;;;;7.57;4.47;;;;;;;;;;4974615;28;20218;-88
2022/04/08 16:10:52;;;;;;;1.60;1.20;;;;;;;;;;4957173;28;20226;-88
2022/04/08 16:13:20;;;;;;;1.10;1.10;;;;;;;;;;4974957;28;20203;-88
2022/04/08 16:15:52;;;;;;;1.80;1.33;;;;;;;;;;4957046;28;20323;-88
2022/04/08 16:18:41;;;;;;;1.73;1.23;;;;;;;;;;4957205;28;20287;-87
2022/04/08 16:21:10;;;;;;;2.77;1.30;;;;;;;;;;4957078;28;20211;-87
2022/04/08 16:23:38;;;;;;;1.13;0.90;;;;;;;;;;4957321;28;20215;-88
2022/04/08 16:26:07;;;;;;;1.33;1.20;;;;;;;;;;4960483;28;20203;-88
2022/04/08 16:28:35;;;;;;;3.13;1.33;;;;;;;;;;4961583;28;20206;-87
2022/04/08 16:31:05;;;;;;;1.60;1.40;;;;;;;;;;4961237;28;20200;-87
2022/04/08 16:33:33;;;;;;;3.50;1.63;;;;;;;;;;4960958;28;20233;-87
2022/04/08 16:36:02;;;;;;;2.73;2.10;;;;;;;;;;4960911;28;20227;-88
2022/04/08 16:38:30;;;;;;;2.03;1.60;;;;;;;;;;4961030;28;20204;-87
2022/04/08 16:40:59;;;;;;;6.27;2.13;;;;;;;;;;4960777;28;20210;-88
2022/04/08 16:43:27;;;;;;;1.43;1.40;;;;;;;;;;4960938;28;20232;-87
2022/04/08 16:45:56;;;;;;;3.40;2.20;;;;;;;;;;4960647;28;20279;-87
2022/04/08 16:48:26;;;;;;;4.40;2.00;;;;;;;;;;4960825;28;20214;-88
2022/04/08 16:50:54;;;;;;;1.23;1.23;;;;;;;;;;4960801;28;20202;-87
2022/04/08 16:53:23;;;;;;;0.87;0.87;;;;;;;;;;4960786;28;20230;-87
2022/04/08 16:55:51;;;;;;;5.07;1.73;;;;;;;;;;4960682;28;20200;-88
2022/04/08 16:58:19;;;;;;;4.37;1.40;;;;;;;;;;4960808;28;20203;-87
2022/04/08 17:00:48;;;;;;;4.40;2.50;;;;;;;;;;4977684;28;20214;-87
2022/04/08 17:03:17;;;;;;;4.07;1.57;;;;;;;;;;4960574;28;20222;-87
2022/04/08 17:05:46;;;;;;;2.53;1.40;;;;;;;;;;4960784;28;20218;-87
2022/04/08 17:08:15;;;;;;;3.53;1.73;;;;;;;;;;4960888;28;20288;-87
2022/04/08 17:10:43;;;;;;;6.33;2.00;;;;;;;;;;4960325;28;20210;-87
2022/04/08 17:13:12;;;;;;;7.43;1.30;;;;;;;;;;4960409;28;20203;-87
2022/04/08 17:15:40;;;;;;;3.83;1.60;;;;;;;;;;4960315;28;20238;-87
2022/04/08 17:18:09;;;;;;;3.50;1.57;;;;;;;;;;4959954;28;20235;-87
2022/04/08 17:20:40;;;;;;;9.33;2.10;;;;;;;;;;4960275;28;20210;-87
2022/04/08 17:23:09;;;;;;;2.20;1.40;;;;;;;;;;4960586;28;20265;-87
2022/04/08 17:25:38;;;;;;;3.07;2.07;;;;;;;;;;4960106;28;20257;-87
2022/04/08 17:28:07;;;;;;;6.43;2.27;;;;;;;;;;4960122;28;20210;-87
2022/04/08 17:30:35;;;;;;;1.77;1.40;;;;;;;;;;4977404;28;20207;-87
2022/04/08 17:33:05;;;;;;;4.33;1.67;;;;;;;;;;4960223;28;20208;-88
2022/04/08 17:35:34;;;;;;;3.43;1.97;;;;;;;;;;4959481;28;20211;-87
2022/04/08 17:38:02;;;;;;;6.20;1.67;;;;;;;;;;4959586;28;20281;-87
2022/04/08 17:40:33;;;;;;;7.10;2.03;;;;;;;;;;4960015;28;20198;-87
2022/04/08 17:43:03;;;;;;;1.87;1.60;;;;;;;;;;4977208;28;20199;-86
2022/04/08 17:45:31;;;;;;;6.23;1.83;;;;;;;;;;4960281;28;20268;-87
2022/04/08 17:48:00;;;;;;;3.67;1.73;;;;;;;;;;4959685;28;20241;-87
2022/04/08 17:50:29;;;;;;;2.27;1.20;;;;;;;;;;4960051;28;20215;-87
2022/04/08 17:52:58;;;;;;;3.13;1.93;;;;;;;;;;4960307;28;20215;-87
2022/04/08 17:55:26;;;;;;;2.30;1.53;;;;;;;;;;4959618;28;20201;-87
2022/04/08 17:57:56;;;;;;;6.43;1.70;;;;;;;;;;4959338;28;20274;-87
2022/04/08 18:00:24;;;;;;;4.13;1.47;;;;;;;;;;4959718;28;20205;-87
2022/04/08 18:02:54;;;;;;;5.73;2.43;;;;;;;;;;4959914;28;20199;-87
2022/04/08 18:05:23;;;;;;;1.50;1.33;;;;;;;;;;4975923;28;20323;-87
2022/04/08 18:07:52;;;;;;;3.03;2.30;;;;;;;;;;4959736;28;20210;-87